sensor_id;sensor_type;location;lat;lon;timestamp;pressure;altitude;pressure_sealevel;temperature;humidity
75650;BME280;64245;51.282;22.494;2023-07-20T00:01:14;98243.19;;;15.00;99.28
75650;BME280;64245;51.282;22.494;2023-07-20T00:03:40;98223.25;;;14.86;99.43
75650;BME280;64245;51.282;22.494;2023-07-20T00:06:06;98241.00;;;14.89;100.00
75650;BME280;64245;51.282;22.494;2023-07-20T00:08:32;98244.75;;;14.88;100.00
75650;BME280;64245;51.282;22.494;2023-07-20T00:10:58;98238.44;;;14.81;100.00
75650;BME280;64245;51.282;22.494;2023-07-20T00:13:23;98247.19;;;14.83;100.00
75650;BME280;64245;51.282;22.494;2023-07-20T00:15:50;98254.28;;;14.84;100.00
75650;BME280;64245;51.282;22.494;2023-07-20T00:18:16;98243.22;;;14.79;100.00
75650;BME280;64245;51.282;22.494;2023-07-20T00:20:42;98237.63;;;14.87;100.00
75650;BME280;64245;51.282;22.494;2023-07-20T00:23:07;98224.06;;;14.80;100.00
75650;BME280;64245;51.282;22.494;2023-07-20T00:25:33;98234.16;;;14.93;100.00
75650;BME280;64245;51.282;22.494;2023-07-20T00:27:59;98237.25;;;14.90;100.00
75650;BME280;64245;51.282;22.494;2023-07-20T00:30:24;98232.88;;;14.89;100.00
75650;BME280;64245;51.282;22.494;2023-07-20T00:32:50;98239.31;;;14.88;100.00
75650;BME280;64245;51.282;22.494;2023-07-20T00:35:16;98235.13;;;14.85;100.00
75650;BME280;64245;51.282;22.494;2023-07-20T00:37:42;98234.09;;;14.86;100.00
75650;BME280;64245;51.282;22.494;2023-07-20T00:40:07;98210.69;;;14.79;100.00
75650;BME280;64245;51.282;22.494;2023-07-20T00:42:33;98229.06;;;14.83;100.00
75650;BME280;64245;51.282;22.494;2023-07-20T00:44:59;98228.44;;;14.81;100.00
75650;BME280;64245;51.282;22.494;2023-07-20T00:47:26;98217.59;;;14.81;100.00
75650;BME280;64245;51.282;22.494;2023-07-20T00:49:53;98213.00;;;14.82;100.00
75650;BME280;64245;51.282;22.494;2023-07-20T00:52:21;98210.91;;;14.77;100.00
75650;BME280;64245;51.282;22.494;2023-07-20T00:54:49;98201.72;;;14.78;100.00
75650;BME280;64245;51.282;22.494;2023-07-20T00:57:15;98197.38;;;14.84;100.00
75650;BME280;64245;51.282;22.494;2023-07-20T00:59:41;98198.63;;;14.81;100.00
75650;BME280;64245;51.282;22.494;2023-07-20T01:02:07;98184.81;;;14.76;100.00
75650;BME280;64245;51.282;22.494;2023-07-20T01:04:33;98164.28;;;14.61;100.00
75650;BME280;64245;51.282;22.494;2023-07-20T01:07:14;98188.13;;;14.72;100.00
75650;BME280;64245;51.282;22.494;2023-07-20T01:09:48;98185.59;;;14.70;100.00
75650;BME280;64245;51.282;22.494;2023-07-20T01:12:33;98188.91;;;14.66;100.00
75650;BME280;64245;51.282;22.494;2023-07-20T01:15:01;98185.16;;;14.67;100.00
75650;BME280;64245;51.282;22.494;2023-07-20T01:17:27;98194.78;;;14.69;100.00
75650;BME280;64245;51.282;22.494;2023-07-20T01:19:52;98191.41;;;14.67;100.00
75650;BME280;64245;51.282;22.494;2023-07-20T01:25:34;98184.28;;;14.60;100.00
75650;BME280;64245;51.282;22.494;2023-07-20T01:28:23;98184.13;;;14.68;100.00
75650;BME280;64245;51.282;22.494;2023-07-20T01:33:42;98170.50;;;14.55;100.00
75650;BME280;64245;51.282;22.494;2023-07-20T01:36:10;98173.34;;;14.46;100.00
75650;BME280;64245;51.282;22.494;2023-07-20T01:38:36;98165.09;;;14.33;100.00
75650;BME280;64245;51.282;22.494;2023-07-20T01:41:03;98167.59;;;14.35;100.00
75650;BME280;64245;51.282;22.494;2023-07-20T01:43:29;98179.56;;;14.40;100.00
75650;BME280;64245;51.282;22.494;2023-07-20T01:45:55;98175.91;;;14.33;100.00
75650;BME280;64245;51.282;22.494;2023-07-20T01:48:20;98193.38;;;14.31;100.00
75650;BME280;64245;51.282;22.494;2023-07-20T01:50:46;98188.97;;;14.23;100.00
75650;BME280;64245;51.282;22.494;2023-07-20T01:53:12;98213.75;;;14.27;100.00
75650;BME280;64245;51.282;22.494;2023-07-20T01:55:37;98206.44;;;14.21;100.00
75650;BME280;64245;51.282;22.494;2023-07-20T01:58:03;98200.00;;;14.22;100.00
75650;BME280;64245;51.282;22.494;2023-07-20T02:00:29;98186.75;;;14.12;100.00
75650;BME280;64245;51.282;22.494;2023-07-20T02:02:55;98195.47;;;14.07;100.00
75650;BME280;64245;51.282;22.494;2023-07-20T02:05:21;98217.56;;;14.11;100.00
75650;BME280;64245;51.282;22.494;2023-07-20T02:07:46;98215.91;;;14.10;100.00
75650;BME280;64245;51.282;22.494;2023-07-20T02:10:12;98212.69;;;14.00;100.00
75650;BME280;64245;51.282;22.494;2023-07-20T02:12:38;98225.44;;;14.06;100.00
75650;BME280;64245;51.282;22.494;2023-07-20T02:15:04;98218.94;;;14.00;100.00
75650;BME280;64245;51.282;22.494;2023-07-20T02:17:30;98219.59;;;14.02;100.00
75650;BME280;64245;51.282;22.494;2023-07-20T02:19:56;98209.97;;;14.00;100.00
75650;BME280;64245;51.282;22.494;2023-07-20T02:22:23;98208.16;;;14.07;100.00
75650;BME280;64245;51.282;22.494;2023-07-20T02:24:49;98204.31;;;14.16;100.00
75650;BME280;64245;51.282;22.494;2023-07-20T02:27:16;98203.28;;;14.17;100.00
75650;BME280;64245;51.282;22.494;2023-07-20T02:29:42;98196.75;;;14.11;100.00
75650;BME280;64245;51.282;22.494;2023-07-20T02:32:08;98206.16;;;14.15;100.00
75650;BME280;64245;51.282;22.494;2023-07-20T02:34:35;98199.53;;;14.18;100.00
75650;BME280;64245;51.282;22.494;2023-07-20T02:37:01;98197.13;;;14.30;100.00
75650;BME280;64245;51.282;22.494;2023-07-20T02:39:27;98192.81;;;14.35;100.00
75650;BME280;64245;51.282;22.494;2023-07-20T02:41:54;98187.38;;;14.35;100.00
75650;BME280;64245;51.282;22.494;2023-07-20T02:44:19;98189.41;;;14.48;100.00
75650;BME280;64245;51.282;22.494;2023-07-20T02:46:45;98196.56;;;14.56;100.00
75650;BME280;64245;51.282;22.494;2023-07-20T02:49:11;98190.56;;;14.60;100.00
75650;BME280;64245;51.282;22.494;2023-07-20T02:51:37;98192.44;;;14.66;100.00
75650;BME280;64245;51.282;22.494;2023-07-20T02:54:02;98196.44;;;14.70;100.00
75650;BME280;64245;51.282;22.494;2023-07-20T02:56:29;98204.78;;;14.69;100.00
75650;BME280;64245;51.282;22.494;2023-07-20T02:58:55;98199.16;;;14.70;100.00
75650;BME280;64245;51.282;22.494;2023-07-20T03:01:20;98207.56;;;14.82;100.00
75650;BME280;64245;51.282;22.494;2023-07-20T03:03:46;98206.78;;;14.88;100.00
75650;BME280;64245;51.282;22.494;2023-07-20T03:06:16;98198.00;;;14.86;100.00
75650;BME280;64245;51.282;22.494;2023-07-20T03:08:42;98210.38;;;14.95;100.00
75650;BME280;64245;51.282;22.494;2023-07-20T03:11:16;98208.97;;;15.06;100.00
75650;BME280;64245;51.282;22.494;2023-07-20T03:13:42;98190.81;;;15.00;100.00
75650;BME280;64245;51.282;22.494;2023-07-20T03:16:08;98193.22;;;15.16;100.00
75650;BME280;64245;51.282;22.494;2023-07-20T03:18:39;98190.50;;;15.16;100.00
75650;BME280;64245;51.282;22.494;2023-07-20T03:21:07;98188.41;;;15.18;100.00
75650;BME280;64245;51.282;22.494;2023-07-20T03:23:32;98184.69;;;15.26;100.00
75650;BME280;64245;51.282;22.494;2023-07-20T03:25:58;98187.88;;;15.36;100.00
75650;BME280;64245;51.282;22.494;2023-07-20T03:28:24;98201.03;;;15.39;100.00
75650;BME280;64245;51.282;22.494;2023-07-20T03:30:56;98200.09;;;15.60;100.00
75650;BME280;64245;51.282;22.494;2023-07-20T03:33:25;98199.84;;;15.54;100.00
75650;BME280;64245;51.282;22.494;2023-07-20T03:35:51;98189.59;;;15.50;100.00
75650;BME280;64245;51.282;22.494;2023-07-20T03:38:17;98183.13;;;15.51;100.00
75650;BME280;64245;51.282;22.494;2023-07-20T03:40:50;98177.50;;;15.52;100.00
75650;BME280;64245;51.282;22.494;2023-07-20T03:43:17;98176.09;;;15.63;100.00
75650;BME280;64245;51.282;22.494;2023-07-20T03:45:43;98184.50;;;15.75;100.00
75650;BME280;64245;51.282;22.494;2023-07-20T03:48:09;98180.09;;;15.67;100.00
75650;BME280;64245;51.282;22.494;2023-07-20T03:50:35;98186.16;;;15.69;100.00
75650;BME280;64245;51.282;22.494;2023-07-20T03:53:00;98195.78;;;15.78;100.00
75650;BME280;64245;51.282;22.494;2023-07-20T03:55:26;98188.47;;;15.72;100.00
75650;BME280;64245;51.282;22.494;2023-07-20T03:57:51;98182.84;;;15.80;100.00
75650;BME280;64245;51.282;22.494;2023-07-20T04:00:18;98177.00;;;15.77;100.00
75650;BME280;64245;51.282;22.494;2023-07-20T04:02:44;98178.25;;;15.74;100.00
75650;BME280;64245;51.282;22.494;2023-07-20T04:05:09;98176.16;;;15.76;100.00
75650;BME280;64245;51.282;22.494;2023-07-20T04:07:35;98175.75;;;15.86;100.00
75650;BME280;64245;51.282;22.494;2023-07-20T04:10:01;98180.81;;;15.96;100.00
75650;BME280;64245;51.282;22.494;2023-07-20T04:12:26;98181.84;;;15.95;100.00
75650;BME280;64245;51.282;22.494;2023-07-20T04:14:52;98182.69;;;15.95;100.00
75650;BME280;64245;51.282;22.494;2023-07-20T04:17:18;98196.06;;;15.97;100.00
75650;BME280;64245;51.282;22.494;2023-07-20T04:19:44;98223.78;;;15.85;100.00
75650;BME280;64245;51.282;22.494;2023-07-20T04:22:10;98202.09;;;15.92;100.00
75650;BME280;64245;51.282;22.494;2023-07-20T04:24:36;98196.88;;;16.04;100.00
75650;BME280;64245;51.282;22.494;2023-07-20T04:27:03;98200.88;;;16.08;100.00
75650;BME280;64245;51.282;22.494;2023-07-20T04:29:29;98207.75;;;16.17;100.00
75650;BME280;64245;51.282;22.494;2023-07-20T04:31:55;98197.13;;;16.09;100.00
75650;BME280;64245;51.282;22.494;2023-07-20T04:34:21;98209.84;;;16.08;100.00
75650;BME280;64245;51.282;22.494;2023-07-20T04:36:46;98211.06;;;15.99;100.00
75650;BME280;64245;51.282;22.494;2023-07-20T04:39:12;98217.19;;;16.14;100.00
75650;BME280;64245;51.282;22.494;2023-07-20T04:41:37;98211.31;;;16.11;100.00
75650;BME280;64245;51.282;22.494;2023-07-20T04:44:03;98225.53;;;16.06;100.00
75650;BME280;64245;51.282;22.494;2023-07-20T04:46:29;98243.88;;;15.98;100.00
75650;BME280;64245;51.282;22.494;2023-07-20T04:48:55;98255.78;;;15.90;100.00
75650;BME280;64245;51.282;22.494;2023-07-20T04:51:20;98255.81;;;15.97;100.00
75650;BME280;64245;51.282;22.494;2023-07-20T04:53:47;98266.88;;;15.95;100.00
75650;BME280;64245;51.282;22.494;2023-07-20T04:56:13;98297.78;;;16.01;100.00
75650;BME280;64245;51.282;22.494;2023-07-20T04:58:39;98298.41;;;15.96;100.00
75650;BME280;64245;51.282;22.494;2023-07-20T05:01:04;98281.19;;;15.76;100.00
75650;BME280;64245;51.282;22.494;2023-07-20T05:03:30;98313.56;;;15.77;100.00
75650;BME280;64245;51.282;22.494;2023-07-20T05:05:57;98301.44;;;15.80;100.00
75650;BME280;64245;51.282;22.494;2023-07-20T05:08:23;98281.59;;;15.79;100.00
75650;BME280;64245;51.282;22.494;2023-07-20T05:10:48;98302.69;;;15.71;100.00
75650;BME280;64245;51.282;22.494;2023-07-20T05:13:14;98301.03;;;15.76;100.00
75650;BME280;64245;51.282;22.494;2023-07-20T05:15:40;98298.09;;;15.78;100.00
75650;BME280;64245;51.282;22.494;2023-07-20T05:18:05;98299.78;;;15.79;100.00
75650;BME280;64245;51.282;22.494;2023-07-20T05:20:31;98297.09;;;15.85;100.00
75650;BME280;64245;51.282;22.494;2023-07-20T05:22:59;98284.41;;;15.93;100.00
75650;BME280;64245;51.282;22.494;2023-07-20T05:25:25;98288.78;;;16.00;100.00
75650;BME280;64245;51.282;22.494;2023-07-20T05:27:51;98297.41;;;16.17;100.00
75650;BME280;64245;51.282;22.494;2023-07-20T05:30:17;98279.66;;;16.14;100.00
75650;BME280;64245;51.282;22.494;2023-07-20T05:32:44;98306.06;;;16.34;100.00
75650;BME280;64245;51.282;22.494;2023-07-20T05:35:19;98302.00;;;16.16;100.00
75650;BME280;64245;51.282;22.494;2023-07-20T05:37:45;98315.59;;;16.16;100.00
75650;BME280;64245;51.282;22.494;2023-07-20T05:40:12;98319.34;;;16.09;100.00
75650;BME280;64245;51.282;22.494;2023-07-20T05:42:38;98318.03;;;15.98;100.00
75650;BME280;64245;51.282;22.494;2023-07-20T05:45:04;98311.94;;;15.89;100.00
75650;BME280;64245;51.282;22.494;2023-07-20T05:47:30;98309.47;;;15.95;100.00
75650;BME280;64245;51.282;22.494;2023-07-20T05:49:57;98300.66;;;15.86;100.00
75650;BME280;64245;51.282;22.494;2023-07-20T05:52:23;98303.13;;;15.81;100.00
75650;BME280;64245;51.282;22.494;2023-07-20T05:54:48;98306.81;;;15.67;100.00
75650;BME280;64245;51.282;22.494;2023-07-20T05:57:14;98295.03;;;15.53;100.00
75650;BME280;64245;51.282;22.494;2023-07-20T05:59:40;98312.00;;;15.62;100.00
75650;BME280;64245;51.282;22.494;2023-07-20T06:02:10;98306.53;;;15.55;100.00
75650;BME280;64245;51.282;22.494;2023-07-20T06:04:39;98313.38;;;15.51;100.00
75650;BME280;64245;51.282;22.494;2023-07-20T06:07:05;98325.28;;;15.50;100.00
75650;BME280;64245;51.282;22.494;2023-07-20T06:09:32;98339.44;;;15.45;100.00
75650;BME280;64245;51.282;22.494;2023-07-20T06:11:58;98347.09;;;15.35;100.00
75650;BME280;64245;51.282;22.494;2023-07-20T06:14:24;98330.69;;;15.15;100.00
75650;BME280;64245;51.282;22.494;2023-07-20T06:16:50;98330.22;;;15.12;100.00
75650;BME280;64245;51.282;22.494;2023-07-20T06:19:15;98339.13;;;14.99;100.00
75650;BME280;64245;51.282;22.494;2023-07-20T06:21:41;98352.59;;;14.71;100.00
75650;BME280;64245;51.282;22.494;2023-07-20T06:24:07;98375.94;;;14.51;100.00
75650;BME280;64245;51.282;22.494;2023-07-20T06:26:33;98368.78;;;14.43;100.00
75650;BME280;64245;51.282;22.494;2023-07-20T06:29:05;98395.94;;;14.50;100.00
75650;BME280;64245;51.282;22.494;2023-07-20T06:31:32;98387.09;;;14.27;100.00
75650;BME280;64245;51.282;22.494;2023-07-20T06:33:58;98396.63;;;14.37;100.00
75650;BME280;64245;51.282;22.494;2023-07-20T06:36:24;98379.91;;;14.34;100.00
75650;BME280;64245;51.282;22.494;2023-07-20T06:38:51;98349.19;;;14.41;100.00
75650;BME280;64245;51.282;22.494;2023-07-20T06:41:18;98344.09;;;14.53;100.00
75650;BME280;64245;51.282;22.494;2023-07-20T06:43:44;98355.19;;;14.58;100.00
75650;BME280;64245;51.282;22.494;2023-07-20T06:46:10;98338.47;;;14.55;100.00
75650;BME280;64245;51.282;22.494;2023-07-20T06:48:35;98356.22;;;14.78;100.00
75650;BME280;64245;51.282;22.494;2023-07-20T06:51:01;98350.19;;;14.83;100.00
75650;BME280;64245;51.282;22.494;2023-07-20T06:53:28;98363.31;;;15.01;100.00
75650;BME280;64245;51.282;22.494;2023-07-20T06:55:54;98366.13;;;15.14;100.00
75650;BME280;64245;51.282;22.494;2023-07-20T06:58:23;98363.94;;;15.03;100.00
75650;BME280;64245;51.282;22.494;2023-07-20T07:00:49;98375.41;;;14.98;100.00
75650;BME280;64245;51.282;22.494;2023-07-20T07:03:15;98369.50;;;15.16;100.00
75650;BME280;64245;51.282;22.494;2023-07-20T07:05:41;98373.06;;;15.23;100.00
75650;BME280;64245;51.282;22.494;2023-07-20T07:08:07;98374.13;;;15.22;100.00
75650;BME280;64245;51.282;22.494;2023-07-20T07:10:35;98390.75;;;15.12;100.00
75650;BME280;64245;51.282;22.494;2023-07-20T07:13:01;98375.13;;;14.93;100.00
75650;BME280;64245;51.282;22.494;2023-07-20T07:15:27;98373.72;;;14.97;100.00
75650;BME280;64245;51.282;22.494;2023-07-20T07:17:53;98368.97;;;15.06;100.00
75650;BME280;64245;51.282;22.494;2023-07-20T07:20:19;98379.38;;;15.02;100.00
75650;BME280;64245;51.282;22.494;2023-07-20T07:22:44;98382.50;;;14.99;100.00
75650;BME280;64245;51.282;22.494;2023-07-20T07:25:11;98375.50;;;15.11;100.00
75650;BME280;64245;51.282;22.494;2023-07-20T07:27:36;98358.50;;;15.03;100.00
75650;BME280;64245;51.282;22.494;2023-07-20T07:30:03;98399.13;;;15.17;100.00
75650;BME280;64245;51.282;22.494;2023-07-20T07:32:29;98423.59;;;15.03;100.00
75650;BME280;64245;51.282;22.494;2023-07-20T07:34:54;98440.66;;;14.97;100.00
75650;BME280;64245;51.282;22.494;2023-07-20T07:37:20;98432.03;;;14.72;100.00
75650;BME280;64245;51.282;22.494;2023-07-20T07:39:46;98428.25;;;14.88;100.00
75650;BME280;64245;51.282;22.494;2023-07-20T07:42:12;98437.16;;;15.03;100.00
75650;BME280;64245;51.282;22.494;2023-07-20T07:44:38;98428.63;;;15.06;100.00
75650;BME280;64245;51.282;22.494;2023-07-20T07:47:04;98438.91;;;15.10;100.00
75650;BME280;64245;51.282;22.494;2023-07-20T07:49:30;98433.03;;;15.07;100.00
75650;BME280;64245;51.282;22.494;2023-07-20T07:51:56;98434.25;;;15.04;100.00
75650;BME280;64245;51.282;22.494;2023-07-20T07:54:22;98440.47;;;15.19;100.00
75650;BME280;64245;51.282;22.494;2023-07-20T07:56:48;98449.63;;;15.18;100.00
75650;BME280;64245;51.282;22.494;2023-07-20T07:59:14;98445.63;;;15.14;100.00
75650;BME280;64245;51.282;22.494;2023-07-20T08:01:39;98449.63;;;15.18;100.00
75650;BME280;64245;51.282;22.494;2023-07-20T08:04:05;98433.38;;;15.18;100.00
75650;BME280;64245;51.282;22.494;2023-07-20T08:06:31;98449.22;;;15.21;100.00
75650;BME280;64245;51.282;22.494;2023-07-20T08:08:57;98448.84;;;15.25;100.00
75650;BME280;64245;51.282;22.494;2023-07-20T08:11:23;98435.88;;;15.20;100.00
75650;BME280;64245;51.282;22.494;2023-07-20T08:13:49;98426.75;;;15.28;100.00
75650;BME280;64245;51.282;22.494;2023-07-20T08:16:15;98417.09;;;15.18;100.00
75650;BME280;64245;51.282;22.494;2023-07-20T08:18:41;98432.94;;;15.21;100.00
75650;BME280;64245;51.282;22.494;2023-07-20T08:21:06;98414.22;;;15.27;100.00
75650;BME280;64245;51.282;22.494;2023-07-20T08:23:33;98421.03;;;15.44;100.00
75650;BME280;64245;51.282;22.494;2023-07-20T08:25:58;98416.19;;;15.61;100.00
75650;BME280;64245;51.282;22.494;2023-07-20T08:28:24;98421.91;;;15.72;100.00
75650;BME280;64245;51.282;22.494;2023-07-20T08:30:51;98434.66;;;15.72;100.00
75650;BME280;64245;51.282;22.494;2023-07-20T08:33:18;98433.91;;;15.84;100.00
75650;BME280;64245;51.282;22.494;2023-07-20T08:35:45;98436.06;;;15.96;99.35
75650;BME280;64245;51.282;22.494;2023-07-20T08:38:12;98439.31;;;16.12;98.07
75650;BME280;64245;51.282;22.494;2023-07-20T08:40:47;98437.78;;;16.03;99.07
75650;BME280;64245;51.282;22.494;2023-07-20T08:43:14;98440.63;;;15.88;99.00
75650;BME280;64245;51.282;22.494;2023-07-20T08:45:47;98442.09;;;15.91;97.22
75650;BME280;64245;51.282;22.494;2023-07-20T08:48:15;98428.13;;;15.66;98.09
75650;BME280;64245;51.282;22.494;2023-07-20T08:50:41;98444.13;;;15.82;99.19
75650;BME280;64245;51.282;22.494;2023-07-20T08:53:08;98450.97;;;16.06;99.76
75650;BME280;64245;51.282;22.494;2023-07-20T08:55:34;98450.38;;;16.11;100.00
75650;BME280;64245;51.282;22.494;2023-07-20T08:58:02;98464.06;;;16.37;100.00
75650;BME280;64245;51.282;22.494;2023-07-20T09:00:28;98465.16;;;16.43;99.49
75650;BME280;64245;51.282;22.494;2023-07-20T09:02:55;98477.22;;;16.68;100.00
75650;BME280;64245;51.282;22.494;2023-07-20T09:05:23;98483.38;;;16.90;99.64
75650;BME280;64245;51.282;22.494;2023-07-20T09:07:51;98482.28;;;16.84;94.24
75650;BME280;64245;51.282;22.494;2023-07-20T09:10:20;98488.50;;;16.65;92.85
75650;BME280;64245;51.282;22.494;2023-07-20T09:12:46;98487.69;;;16.71;93.58
75650;BME280;64245;51.282;22.494;2023-07-20T09:15:12;98492.16;;;16.92;93.31
75650;BME280;64245;51.282;22.494;2023-07-20T09:17:38;98490.13;;;17.20;95.30
75650;BME280;64245;51.282;22.494;2023-07-20T09:20:05;98494.75;;;17.33;92.86
75650;BME280;64245;51.282;22.494;2023-07-20T09:22:34;98481.16;;;17.53;91.00
75650;BME280;64245;51.282;22.494;2023-07-20T09:25:00;98490.97;;;17.21;91.97
75650;BME280;64245;51.282;22.494;2023-07-20T09:27:39;98483.47;;;17.63;89.73
75650;BME280;64245;51.282;22.494;2023-07-20T09:30:05;98472.38;;;17.90;85.95
75650;BME280;64245;51.282;22.494;2023-07-20T09:32:37;98479.56;;;18.56;85.63
75650;BME280;64245;51.282;22.494;2023-07-20T09:35:04;98481.22;;;18.70;79.77
75650;BME280;64245;51.282;22.494;2023-07-20T09:37:33;98491.41;;;18.88;80.43
75650;BME280;64245;51.282;22.494;2023-07-20T09:39:59;98493.56;;;18.79;82.61
75650;BME280;64245;51.282;22.494;2023-07-20T09:42:25;98496.38;;;18.66;82.49
75650;BME280;64245;51.282;22.494;2023-07-20T09:44:52;98499.22;;;18.84;88.05
75650;BME280;64245;51.282;22.494;2023-07-20T09:47:22;98511.94;;;19.04;86.82
75650;BME280;64245;51.282;22.494;2023-07-20T09:49:48;98511.22;;;19.15;82.24
75650;BME280;64245;51.282;22.494;2023-07-20T09:52:14;98502.84;;;19.10;82.94
75650;BME280;64245;51.282;22.494;2023-07-20T09:54:44;98499.25;;;19.16;82.52
75650;BME280;64245;51.282;22.494;2023-07-20T09:57:11;98506.97;;;19.25;82.03
75650;BME280;64245;51.282;22.494;2023-07-20T09:59:39;98509.22;;;19.04;80.40
75650;BME280;64245;51.282;22.494;2023-07-20T10:02:11;98497.50;;;19.28;82.64
75650;BME280;64245;51.282;22.494;2023-07-20T10:04:39;98516.34;;;19.43;81.37
75650;BME280;64245;51.282;22.494;2023-07-20T10:07:10;98501.75;;;18.79;77.70
75650;BME280;64245;51.282;22.494;2023-07-20T10:09:39;98509.38;;;19.09;77.78
75650;BME280;64245;51.282;22.494;2023-07-20T10:12:07;98519.00;;;18.53;79.07
75650;BME280;64245;51.282;22.494;2023-07-20T10:14:38;98513.53;;;18.73;81.40
75650;BME280;64245;51.282;22.494;2023-07-20T10:17:07;98524.22;;;18.68;81.66
75650;BME280;64245;51.282;22.494;2023-07-20T10:19:43;98521.38;;;18.37;82.13
75650;BME280;64245;51.282;22.494;2023-07-20T10:22:19;98528.72;;;18.29;82.00
75650;BME280;64245;51.282;22.494;2023-07-20T10:24:48;98527.03;;;18.42;81.07
75650;BME280;64245;51.282;22.494;2023-07-20T10:27:15;98527.44;;;18.45;81.29
75650;BME280;64245;51.282;22.494;2023-07-20T10:29:41;98526.53;;;18.71;80.36
75650;BME280;64245;51.282;22.494;2023-07-20T10:32:08;98527.06;;;19.38;80.69
75650;BME280;64245;51.282;22.494;2023-07-20T10:34:37;98538.13;;;19.56;77.42
75650;BME280;64245;51.282;22.494;2023-07-20T10:37:04;98534.00;;;19.40;77.16
75650;BME280;64245;51.282;22.494;2023-07-20T10:39:33;98542.25;;;18.82;78.58
75650;BME280;64245;51.282;22.494;2023-07-20T10:42:06;98528.41;;;18.84;78.18
75650;BME280;64245;51.282;22.494;2023-07-20T10:44:33;98537.28;;;19.11;80.10
75650;BME280;64245;51.282;22.494;2023-07-20T10:47:00;98530.03;;;19.29;78.64
75650;BME280;64245;51.282;22.494;2023-07-20T10:49:26;98540.13;;;19.29;75.66
75650;BME280;64245;51.282;22.494;2023-07-20T10:51:57;98524.13;;;19.01;78.63
75650;BME280;64245;51.282;22.494;2023-07-20T10:56:52;98536.00;;;19.20;76.70
75650;BME280;64245;51.282;22.494;2023-07-20T10:59:37;98532.03;;;19.09;78.33
75650;BME280;64245;51.282;22.494;2023-07-20T11:02:08;98533.41;;;19.25;76.63
75650;BME280;64245;51.282;22.494;2023-07-20T11:04:45;98544.19;;;19.58;75.55
75650;BME280;64245;51.282;22.494;2023-07-20T11:07:15;98529.84;;;20.19;74.14
75650;BME280;64245;51.282;22.494;2023-07-20T11:09:41;98535.78;;;20.59;72.56
75650;BME280;64245;51.282;22.494;2023-07-20T11:12:12;98531.59;;;20.75;72.30
75650;BME280;64245;51.282;22.494;2023-07-20T11:17:15;98530.69;;;20.19;72.72
75650;BME280;64245;51.282;22.494;2023-07-20T11:19:41;98520.84;;;20.12;71.74
75650;BME280;64245;51.282;22.494;2023-07-20T11:22:07;98524.34;;;20.44;72.49
75650;BME280;64245;51.282;22.494;2023-07-20T11:24:40;98535.84;;;20.27;68.49
75650;BME280;64245;51.282;22.494;2023-07-20T11:27:06;98524.22;;;20.32;71.86
75650;BME280;64245;51.282;22.494;2023-07-20T11:29:31;98528.25;;;20.73;67.83
75650;BME280;64245;51.282;22.494;2023-07-20T11:31:57;98521.69;;;20.92;65.25
75650;BME280;64245;51.282;22.494;2023-07-20T11:34:26;98507.00;;;21.64;64.35
75650;BME280;64245;51.282;22.494;2023-07-20T11:36:52;98511.84;;;21.51;63.79
75650;BME280;64245;51.282;22.494;2023-07-20T11:39:20;98517.28;;;21.69;63.68
75650;BME280;64245;51.282;22.494;2023-07-20T11:41:48;98520.72;;;21.64;63.95
75650;BME280;64245;51.282;22.494;2023-07-20T11:44:19;98515.78;;;22.55;67.84
75650;BME280;64245;51.282;22.494;2023-07-20T11:46:45;98535.38;;;21.70;63.44
75650;BME280;64245;51.282;22.494;2023-07-20T11:49:11;98520.84;;;21.40;63.96
75650;BME280;64245;51.282;22.494;2023-07-20T11:51:38;98518.59;;;21.18;64.03
75650;BME280;64245;51.282;22.494;2023-07-20T11:54:06;98524.97;;;21.60;63.00
75650;BME280;64245;51.282;22.494;2023-07-20T11:56:32;98525.94;;;21.54;64.85
75650;BME280;64245;51.282;22.494;2023-07-20T11:58:58;98521.13;;;21.01;66.56
75650;BME280;64245;51.282;22.494;2023-07-20T12:01:26;98520.75;;;20.98;68.21
75650;BME280;64245;51.282;22.494;2023-07-20T12:04:01;98527.16;;;21.40;67.04
75650;BME280;64245;51.282;22.494;2023-07-20T12:06:29;98522.38;;;21.77;67.75
75650;BME280;64245;51.282;22.494;2023-07-20T12:08:56;98523.59;;;21.40;64.97
75650;BME280;64245;51.282;22.494;2023-07-20T12:11:37;98511.63;;;21.22;66.36
75650;BME280;64245;51.282;22.494;2023-07-20T12:14:04;98507.34;;;21.26;65.75
75650;BME280;64245;51.282;22.494;2023-07-20T12:16:32;98520.75;;;21.16;66.19
75650;BME280;64245;51.282;22.494;2023-07-20T12:19:01;98516.28;;;21.03;65.92
75650;BME280;64245;51.282;22.494;2023-07-20T12:21:28;98517.09;;;21.04;65.81
75650;BME280;64245;51.282;22.494;2023-07-20T12:23:56;98511.19;;;21.79;65.37
75650;BME280;64245;51.282;22.494;2023-07-20T12:26:22;98519.97;;;22.69;59.89
75650;BME280;64245;51.282;22.494;2023-07-20T12:28:49;98507.22;;;22.51;63.31
75650;BME280;64245;51.282;22.494;2023-07-20T12:31:15;98500.19;;;23.35;60.23
75650;BME280;64245;51.282;22.494;2023-07-20T12:33:41;98491.63;;;24.10;59.16
75650;BME280;64245;51.282;22.494;2023-07-20T12:36:08;98494.78;;;24.74;55.01
75650;BME280;64245;51.282;22.494;2023-07-20T12:38:34;98503.31;;;24.34;57.53
75650;BME280;64245;51.282;22.494;2023-07-20T12:41:01;98490.34;;;23.68;56.51
75650;BME280;64245;51.282;22.494;2023-07-20T12:43:27;98497.75;;;23.22;59.66
75650;BME280;64245;51.282;22.494;2023-07-20T12:45:53;98498.06;;;23.99;58.39
75650;BME280;64245;51.282;22.494;2023-07-20T12:48:19;98488.88;;;23.94;58.27
75650;BME280;64245;51.282;22.494;2023-07-20T12:50:45;98491.25;;;23.57;58.34
75650;BME280;64245;51.282;22.494;2023-07-20T12:53:10;98493.09;;;23.23;57.77